createdAt,value
2019-04-20T00:03:34.659Z,15.30
2019-04-20T00:06:42.931Z,15.20
2019-04-20T00:09:50.195Z,15.20
2019-04-20T00:13:09.047Z,15.10
2019-04-20T00:16:04.107Z,15.10
2019-04-20T00:26:10.233Z,14.90
2019-04-20T00:29:25.451Z,15.00
2019-04-20T00:35:33.874Z,14.90
2019-04-20T00:38:48.371Z,14.90
2019-04-20T00:41:58.979Z,14.90
2019-04-20T00:45:10.094Z,14.90
2019-04-20T00:48:23.894Z,14.90
2019-04-20T00:51:36.681Z,14.80
2019-04-20T00:54:32.464Z,14.80
2019-04-20T00:57:48.554Z,14.80
2019-04-20T01:01:15.331Z,14.70
2019-04-20T01:04:20.221Z,14.60
2019-04-20T01:10:28.371Z,14.60
2019-04-20T01:13:42.138Z,14.60
2019-04-20T01:16:52.551Z,14.50
2019-04-20T01:19:48.879Z,14.50
2019-04-20T01:22:54.628Z,14.40
2019-04-20T01:26:01.450Z,14.30
2019-04-20T01:29:09.142Z,14.30
2019-04-20T01:32:10.484Z,14.30
2019-04-20T01:35:18.086Z,14.20
2019-04-20T01:38:21.074Z,14.20
2019-04-20T01:41:07.392Z,14.00
2019-04-20T01:44:09.194Z,14.00
2019-04-20T01:47:09.877Z,14.00
2019-04-20T01:50:22.711Z,14.00
2019-04-20T02:00:17.467Z,14.00
2019-04-20T02:03:43.360Z,13.90
2019-04-20T02:06:28.627Z,13.90
2019-04-20T02:09:43.325Z,13.80
2019-04-20T02:12:50.281Z,13.70
2019-04-20T02:15:59.831Z,13.70
2019-04-20T02:19:23.054Z,13.70
2019-04-20T02:22:38.246Z,13.50
2019-04-20T02:25:26.883Z,13.30
2019-04-20T02:29:03.267Z,13.40
2019-04-20T02:35:52.795Z,13.30
2019-04-20T02:39:30.536Z,13.30
2019-04-20T02:42:36.624Z,13.30
2019-04-20T02:45:40.374Z,13.20
2019-04-20T02:48:48.204Z,13.20
2019-04-20T02:51:59.740Z,13.20
2019-04-20T02:58:07.316Z,13.10
2019-04-20T03:01:32.138Z,13.10
2019-04-20T03:04:30.389Z,12.80
2019-04-20T03:07:50.857Z,12.90
2019-04-20T03:10:50.833Z,12.90
2019-04-20T03:13:50.340Z,12.90
2019-04-20T03:17:08.684Z,12.90
2019-04-20T03:19:57.412Z,12.80
2019-04-20T03:23:26.837Z,12.70
2019-04-20T03:26:13.842Z,12.80
2019-04-20T03:29:37.295Z,12.70
2019-04-20T03:36:23.714Z,12.60
2019-04-20T03:39:18.060Z,12.50
2019-04-20T03:42:12.475Z,12.40
2019-04-20T03:45:23.058Z,12.40
2019-04-20T03:48:46.756Z,12.30
2019-04-20T03:55:34.160Z,12.30
2019-04-20T03:58:55.392Z,12.20
2019-04-20T04:05:35.761Z,11.90
2019-04-20T04:08:39.531Z,12.00
2019-04-20T04:11:57.598Z,12.00
2019-04-20T04:14:53.399Z,11.90
2019-04-20T04:18:07.406Z,11.90
2019-04-20T04:21:10.050Z,11.90
2019-04-20T04:24:19.967Z,11.90
2019-04-20T04:27:36.409Z,11.80
2019-04-20T04:30:28.349Z,11.80
2019-04-20T04:36:21.299Z,11.70
2019-04-20T04:39:35.496Z,11.70
2019-04-20T04:42:52.505Z,11.70
2019-04-20T04:45:38.597Z,11.80
2019-04-20T04:48:50.771Z,11.80
2019-04-20T04:52:05.205Z,11.70
2019-04-20T04:55:38.098Z,11.80
2019-04-20T04:58:38.365Z,11.70
2019-04-20T05:01:51.441Z,11.70
2019-04-20T05:05:38.165Z,11.70
2019-04-20T05:08:17.578Z,11.70
2019-04-20T05:11:17.323Z,11.70
2019-04-20T05:14:38.751Z,11.70
2019-04-20T05:17:57.780Z,11.70
2019-04-20T05:21:01.563Z,11.80
2019-04-20T05:24:09.985Z,11.70
2019-04-20T05:27:37.581Z,11.70
2019-04-20T05:30:18.073Z,11.80
2019-04-20T05:33:28.151Z,11.80
2019-04-20T05:36:41.519Z,11.80
2019-04-20T05:39:44.491Z,11.90
2019-04-20T05:42:55.664Z,11.90
2019-04-20T05:45:50.503Z,11.90
2019-04-20T05:48:57.672Z,12.10
2019-04-20T05:52:07.741Z,12.10
2019-04-20T05:55:07.393Z,12.10
2019-04-20T05:58:10.045Z,12.10
2019-04-20T06:01:19.254Z,12.20
2019-04-20T06:04:07.465Z,12.30
2019-04-20T06:07:16.794Z,12.40
2019-04-20T06:10:20.819Z,12.40
2019-04-20T06:19:44.485Z,12.60
2019-04-20T06:27:08.256Z,12.70
2019-04-20T06:29:18.443Z,12.70
2019-04-20T06:32:50.974Z,12.80
2019-04-20T06:39:16.158Z,12.90
2019-04-20T06:42:21.968Z,13.10
2019-04-20T06:45:40.768Z,13.20
2019-04-20T06:48:49.957Z,13.30
2019-04-20T06:52:15.404Z,13.40
2019-04-20T06:58:43.805Z,13.60
2019-04-20T07:01:57.026Z,13.70
2019-04-20T07:04:57.937Z,13.70
2019-04-20T07:08:17.188Z,13.80
2019-04-20T07:11:21.279Z,13.90
2019-04-20T07:14:11.863Z,13.90
2019-04-20T07:17:58.981Z,14.00
2019-04-20T07:24:17.299Z,14.20
2019-04-20T07:27:19.636Z,14.30
2019-04-20T07:30:16.478Z,14.50
2019-04-20T07:33:28.494Z,14.50
2019-04-20T07:36:32.449Z,14.70
2019-04-20T07:39:33.141Z,14.70
2019-04-20T07:42:34.841Z,14.80
2019-04-20T07:45:35.157Z,15.00
2019-04-20T07:48:36.309Z,15.10
2019-04-20T07:51:27.798Z,15.20
2019-04-20T07:54:53.830Z,15.30
2019-04-20T07:57:41.910Z,15.40
2019-04-20T08:04:01.406Z,15.70
2019-04-20T08:06:52.804Z,15.80
2019-04-20T08:09:53.274Z,16.00
2019-04-20T08:13:19.600Z,16.10
2019-04-20T08:16:11.594Z,16.20
2019-04-20T08:19:12.234Z,16.30
2019-04-20T08:22:19.796Z,16.50
2019-04-20T08:25:12.571Z,16.60
2019-04-20T08:28:13.661Z,16.70
2019-04-20T08:34:51.446Z,16.90
2019-04-20T08:38:05.775Z,17.10
2019-04-20T08:40:53.562Z,17.20
2019-04-20T08:43:58.471Z,17.40
2019-04-20T08:47:12.086Z,17.40
2019-04-20T08:53:15.671Z,17.70
2019-04-20T08:56:00.260Z,17.90
2019-04-20T08:58:50.742Z,18.10
2019-04-20T09:01:53.427Z,18.10
2019-04-20T09:05:02.524Z,18.30
2019-04-20T09:08:05.645Z,18.50
2019-04-20T09:11:16.344Z,18.60
2019-04-20T09:14:22.067Z,18.80
2019-04-20T09:17:50.634Z,19.00
2019-04-20T09:20:52.668Z,19.10
2019-04-20T09:24:14.582Z,19.30
2019-04-20T09:27:08.893Z,19.50
2019-04-20T09:30:09.438Z,19.70
2019-04-20T09:33:33.688Z,19.80
2019-04-20T09:40:03.360Z,20.10
2019-04-20T09:42:45.686Z,20.30
2019-04-20T09:45:50.443Z,20.40
2019-04-20T09:48:57.364Z,20.50
2019-04-20T09:52:09.688Z,20.60
2019-04-20T09:55:10.782Z,20.70
2019-04-20T09:58:12.647Z,20.80
2019-04-20T10:01:13.343Z,20.90
2019-04-20T10:04:03.482Z,20.90
2019-04-20T10:07:11.427Z,21.10
2019-04-20T10:10:17.919Z,21.30
2019-04-20T10:13:11.225Z,21.40
2019-04-20T10:16:11.901Z,21.50
2019-04-20T10:19:13.728Z,21.60
2019-04-20T10:22:14.920Z,21.70
2019-04-20T10:25:15.271Z,21.90
2019-04-20T10:28:16.021Z,22.00
2019-04-20T10:31:16.824Z,22.20
2019-04-20T10:34:18.053Z,22.40
2019-04-20T10:37:24.194Z,22.40
2019-04-20T10:40:39.102Z,22.50
2019-04-20T10:43:28.141Z,22.70
2019-04-20T10:46:28.920Z,22.80
2019-04-20T10:49:29.450Z,23.00
2019-04-20T10:52:30.085Z,23.20
2019-04-20T10:55:31.463Z,23.40
2019-04-20T10:58:33.649Z,23.40
2019-04-20T11:01:34.195Z,23.20
2019-04-20T11:04:34.858Z,23.20
2019-04-20T11:07:36.609Z,23.50
2019-04-20T11:10:52.067Z,23.60
2019-04-20T11:13:41.387Z,23.60
2019-04-20T11:16:42.414Z,23.80
2019-04-20T11:19:43.833Z,23.80
2019-04-20T11:22:46.362Z,24.10
2019-04-20T11:25:48.093Z,24.30
2019-04-20T11:28:48.626Z,24.50
2019-04-20T11:31:54.008Z,24.50
2019-04-20T11:34:53.288Z,24.70
2019-04-20T11:37:55.348Z,24.90
2019-04-20T11:41:07.356Z,25.00
2019-04-20T11:43:59.842Z,25.10
2019-04-20T11:47:00.862Z,25.00
2019-04-20T11:50:01.820Z,25.10
2019-04-20T11:53:03.512Z,25.20
2019-04-20T11:56:07.562Z,25.10
2019-04-20T11:59:07.321Z,25.30
2019-04-20T12:02:33.017Z,25.20
2019-04-20T12:05:37.554Z,25.40
2019-04-20T12:08:32.666Z,25.90
2019-04-20T12:11:52.817Z,26.00
2019-04-20T12:14:38.698Z,26.10
2019-04-20T12:17:40.054Z,26.30
2019-04-20T12:20:40.944Z,26.30
2019-04-20T12:23:42.339Z,26.40
2019-04-20T12:26:44.568Z,26.50
2019-04-20T12:29:45.740Z,26.40
2019-04-20T12:32:51.917Z,26.70
2019-04-20T12:35:50.089Z,26.70
2019-04-20T12:38:51.086Z,26.90
2019-04-20T12:41:56.740Z,26.90
2019-04-20T12:44:55.629Z,27.00
2019-04-20T12:47:57.594Z,27.20
2019-04-20T12:50:59.479Z,26.90
2019-04-20T12:54:00.624Z,26.90
2019-04-20T12:57:01.002Z,26.60
2019-04-20T13:00:01.748Z,26.70
2019-04-20T13:03:03.319Z,26.60
2019-04-20T13:06:04.148Z,27.00
2019-04-20T13:09:06.549Z,27.30
2019-04-20T13:12:15.488Z,27.40
2019-04-20T13:21:54.794Z,27.40
2019-04-20T13:24:56.941Z,27.40
2019-04-20T13:27:58.864Z,27.40
2019-04-20T13:31:00.274Z,27.30
2019-04-20T13:34:01.477Z,27.30
2019-04-20T13:37:02.182Z,27.20
2019-04-20T13:40:11.142Z,27.20
2019-04-20T13:43:20.144Z,27.00
2019-04-20T13:46:29.170Z,27.20
2019-04-20T13:49:38.822Z,27.10
2019-04-20T13:52:48.885Z,27.10
2019-04-20T13:55:59.103Z,27.00
2019-04-20T14:02:44.967Z,27.00
2019-04-20T14:05:53.045Z,27.10
2019-04-20T14:12:25.192Z,27.30
2019-04-20T14:15:28.993Z,27.20
2019-04-20T14:18:37.619Z,27.40
2019-04-20T14:21:38.592Z,27.50
2019-04-20T14:24:40.295Z,27.50
2019-04-20T14:27:40.946Z,27.40
2019-04-20T14:30:41.574Z,27.60
2019-04-20T14:33:42.366Z,27.10
2019-04-20T14:36:44.511Z,27.30
2019-04-20T14:39:46.163Z,26.80
2019-04-20T14:42:50.342Z,26.60
2019-04-20T14:45:50.486Z,26.30
2019-04-20T14:48:52.360Z,26.50
2019-04-20T14:51:55.814Z,26.80
2019-04-20T14:54:55.639Z,26.50
2019-04-20T14:57:57.883Z,26.20
2019-04-20T15:01:02.998Z,26.60
2019-04-20T15:04:09.040Z,26.70
2019-04-20T15:07:06.681Z,26.60
2019-04-20T15:10:08.994Z,26.50
2019-04-20T15:13:10.184Z,26.50
2019-04-20T15:16:12.865Z,26.60
2019-04-20T15:19:33.630Z,26.40
2019-04-20T15:22:41.372Z,26.60
2019-04-20T15:25:44.489Z,26.50
2019-04-20T15:28:46.245Z,26.70
2019-04-20T15:31:48.128Z,26.50
2019-04-20T15:34:48.999Z,26.10
2019-04-20T15:37:49.500Z,26.10
2019-04-20T15:40:51.105Z,26.40
2019-04-20T15:43:53.228Z,26.30
2019-04-20T15:46:55.157Z,26.60
2019-04-20T15:49:56.016Z,26.60
2019-04-20T15:52:57.329Z,26.60
2019-04-20T15:56:00.569Z,26.70
2019-04-20T15:59:02.313Z,26.60
2019-04-20T16:08:44.059Z,26.60
2019-04-20T16:11:44.920Z,26.60
2019-04-20T16:14:45.774Z,26.20
2019-04-20T16:17:50.861Z,26.20
2019-04-20T16:20:58.186Z,26.40
2019-04-20T16:27:39.620Z,26.00
2019-04-20T16:30:41.300Z,26.00
2019-04-20T16:33:42.334Z,26.00
2019-04-20T16:36:44.374Z,26.20
2019-04-20T16:39:46.475Z,26.20
2019-04-20T16:42:48.015Z,26.20
2019-04-20T16:45:48.806Z,26.20
2019-04-20T16:48:49.194Z,26.10
2019-04-20T16:51:49.618Z,26.30
2019-04-20T16:54:50.501Z,26.10
2019-04-20T16:57:51.692Z,26.20
2019-04-20T17:00:53.875Z,26.10
2019-04-20T17:04:05.040Z,25.90
2019-04-20T17:07:18.412Z,25.70
2019-04-20T17:10:20.202Z,25.90
2019-04-20T17:13:31.905Z,25.60
2019-04-20T17:16:24.110Z,25.60
2019-04-20T17:19:13.353Z,25.70
2019-04-20T17:22:21.625Z,25.50
2019-04-20T17:25:32.282Z,25.30
2019-04-20T17:35:34.709Z,25.00
2019-04-20T17:38:37.633Z,24.90
2019-04-20T17:42:00.424Z,24.50
2019-04-20T17:45:02.107Z,24.10
2019-04-20T17:48:17.653Z,23.80
2019-04-20T17:51:33.872Z,23.30
2019-04-20T18:01:13.590Z,22.60
2019-04-20T18:11:03.008Z,22.10
2019-04-20T18:14:24.227Z,21.90
2019-04-20T18:17:50.379Z,21.70
2019-04-20T18:24:05.277Z,21.40
2019-04-20T18:27:27.874Z,21.30
2019-04-20T18:30:26.829Z,21.10
2019-04-20T18:33:18.826Z,20.90
2019-04-20T18:36:23.412Z,20.80
2019-04-20T18:39:29.159Z,20.70
2019-04-20T18:42:29.147Z,20.70
2019-04-20T18:45:41.089Z,20.50
2019-04-20T18:48:48.357Z,20.50
2019-04-20T18:51:29.993Z,20.40
2019-04-20T18:54:35.275Z,20.20
2019-04-20T18:57:34.532Z,20.30
2019-04-20T19:00:41.785Z,20.20
2019-04-20T19:03:43.743Z,20.10
2019-04-20T19:06:41.403Z,19.90
2019-04-20T19:09:42.973Z,19.80
2019-04-20T19:12:53.505Z,19.80
2019-04-20T19:19:36.736Z,19.60
2019-04-20T19:22:28.364Z,19.60
2019-04-20T19:25:33.146Z,19.40
2019-04-20T19:28:39.265Z,19.50
2019-04-20T19:31:51.312Z,19.30
2019-04-20T19:34:52.618Z,19.20
2019-04-20T19:37:50.271Z,19.20
2019-04-20T19:40:52.223Z,19.10
2019-04-20T19:43:54.961Z,18.90
2019-04-20T19:47:15.607Z,18.80
2019-04-20T19:50:31.203Z,18.90
2019-04-20T19:53:36.210Z,18.90
2019-04-20T19:56:44.314Z,18.70
2019-04-20T19:59:40.287Z,18.60
2019-04-20T20:02:43.525Z,18.50
2019-04-20T20:05:54.756Z,18.60
2019-04-20T20:12:19.797Z,18.50
2019-04-20T20:15:34.068Z,18.30
2019-04-20T20:18:51.109Z,18.20
2019-04-20T20:21:55.488Z,18.20
2019-04-20T20:24:43.147Z,18.20
2019-04-20T20:27:52.499Z,17.90
2019-04-20T20:30:56.905Z,17.70
2019-04-20T20:34:03.016Z,17.70
2019-04-20T20:36:59.818Z,17.50
2019-04-20T20:40:07.621Z,17.60
2019-04-20T20:43:07.267Z,17.40
2019-04-20T20:46:14.892Z,17.40
2019-04-20T20:49:25.465Z,17.40
2019-04-20T20:52:26.315Z,17.30
2019-04-20T20:55:22.884Z,17.00
2019-04-20T20:58:18.210Z,17.20
2019-04-20T21:01:20.462Z,17.10
2019-04-20T21:04:17.528Z,17.00
2019-04-20T21:07:18.794Z,16.90
2019-04-20T21:10:25.890Z,16.70
2019-04-20T21:13:25.908Z,16.70
2019-04-20T21:16:31.859Z,16.70
2019-04-20T21:19:50.756Z,16.60
2019-04-20T21:22:50.281Z,16.50
2019-04-20T21:25:47.614Z,16.30
2019-04-20T21:28:44.238Z,16.20
2019-04-20T21:31:54.486Z,16.00
2019-04-20T21:34:35.624Z,16.00
2019-04-20T21:37:52.562Z,15.70
2019-04-20T21:40:40.135Z,15.70
2019-04-20T21:43:45.034Z,15.60
2019-04-20T21:46:54.970Z,15.40
2019-04-20T21:50:21.499Z,15.40
2019-04-20T21:53:18.289Z,15.40
2019-04-20T21:56:23.871Z,15.30
2019-04-20T21:59:40.962Z,15.10
2019-04-20T22:06:10.803Z,15.10
2019-04-20T22:09:20.429Z,15.00
2019-04-20T22:12:41.953Z,14.90
2019-04-20T22:15:46.608Z,14.80
2019-04-20T22:18:58.136Z,14.60
2019-04-20T22:22:04.205Z,14.60
2019-04-20T22:25:06.323Z,14.50
2019-04-20T22:27:46.359Z,14.40
2019-04-20T22:30:55.808Z,14.40
2019-04-20T22:41:03.847Z,14.20
2019-04-20T22:47:35.680Z,14.00
2019-04-20T22:51:01.653Z,13.90
2019-04-20T22:54:10.945Z,13.80
2019-04-20T22:57:13.061Z,13.70
2019-04-20T23:03:28.498Z,13.50
2019-04-20T23:06:41.961Z,13.50
2019-04-20T23:09:52.887Z,13.40
2019-04-20T23:12:59.165Z,13.40
2019-04-20T23:16:07.412Z,13.10
2019-04-20T23:19:27.286Z,13.20
2019-04-20T23:22:19.215Z,13.10
2019-04-20T23:25:20.961Z,13.20
2019-04-20T23:28:23.051Z,13.00
2019-04-20T23:31:26.754Z,13.10
2019-04-20T23:34:30.430Z,13.10
2019-04-20T23:37:32.961Z,13.00
2019-04-20T23:40:31.966Z,12.90
2019-04-20T23:47:22.335Z,12.80
2019-04-20T23:50:41.072Z,12.60
2019-04-20T23:53:41.217Z,12.60
2019-04-20T23:56:29.869Z,12.70
2019-04-20T23:59:37.554Z,12.60
